Aérodrome :
LOGIN :

S'inscrire | Disclaimer

   EN    FR    IT 

 










Légende :    VFR   VFR Marginal   IFR   IFR Intensif   IFR Très Intensif
Visi : 
Plafond : 
>= 8 km
>= 3000ft
5 à 8 km
1000 à 3000 ft
1500m à 5 km
500 à 1000 ft
800 à 1500m
200 à 500 ft
< 800m
< 200 ft
Symboles :   Orages  Brouillard  Fortes neiges  Fortes précipitations  Vent > 20 kt
SIGMETs :   Divers  Orages  Givrage  Turbulence  Onde Orograph.  Cendres Volcan.







- Altitude de l'aérodrome : 236 ft
- Code IATA : MMX


ESMS - Malmö Sturup

DERNIER METAR :
  • 182150Z 08002KT 1100 R17/P1500N R35/P1500N BR OVC030 11/11 Q1016

METARs EXPIRÉS :
  • 182120Z 00000KT 2800 -RA FEW030 BKN062 11/11 Q1016
  • 182050Z 09002KT 2500 -RA BR FEW030 BKN062 11/11 Q1016
  • 182020Z 00000KT 2500 -RA BR SCT028 BKN064 11/11 Q1016
  • 181950Z 08002KT 3000 -RA SCT028 11/11 Q1016
  • 181920Z 00000KT 3000 RA FEW024 BKN059 11/11 Q1016

TAF AMD TAF ESMS
Valide du 18 à 22h jusqu'au 19 à 18h UTC


182159Z 1822/1918 VRB02KT 9999 BKN020
TEMPO 1822/1908 1000 -RADZ BR BKN004
BECMG 1902/1905 09010KT
TEMPO 1908/1918 4000 -RADZ BR BKN008
Pas de NOTAMs connus pour ce terrain.



MET'MAP, la Météo Aéronautique d'un coup d'oeil ! - Copyright ORBIFLY Décembre 2007 - Disclaimer

ORBIFLY MET'MAP TEAM :

Programmation & Développement : Alexandra Zaïnal
Conception & Développement : Baudouin d'Aumeries
Co-Programmation & Développement : Marc-Olivier Méhu
Soutien technique & logistique : Manuel Goepfert

Contact : metmap@orbifly.com




SOURCES & CREDITS :

   NOAA